createdAt,value
2017-03-21T00:00:51.182Z,993.6
2017-03-21T00:01:53.052Z,993.5
2017-03-21T00:02:55.286Z,993.5
2017-03-21T00:03:57.139Z,993.6
2017-03-21T00:04:59.164Z,993.5
2017-03-21T00:06:01.360Z,993.6
2017-03-21T00:07:03.359Z,993.5
2017-03-21T00:08:05.207Z,993.6
2017-03-21T00:09:07.188Z,993.6
2017-03-21T00:10:09.035Z,993.5
2017-03-21T00:11:11.381Z,993.6
2017-03-21T00:12:13.236Z,993.5
2017-03-21T00:13:15.429Z,993.5
2017-03-21T00:14:17.620Z,993.6
2017-03-21T00:15:19.825Z,993.6
2017-03-21T00:16:21.670Z,993.7
2017-03-21T00:17:23.523Z,993.6
2017-03-21T00:18:25.370Z,993.7
2017-03-21T00:19:27.564Z,993.6
2017-03-21T00:20:29.423Z,993.6
2017-03-21T00:21:31.387Z,993.8
2017-03-21T00:22:33.219Z,993.8
2017-03-21T00:23:35.772Z,994
2017-03-21T00:24:37.994Z,994
2017-03-21T00:25:39.843Z,994
2017-03-21T00:26:41.688Z,994.1
2017-03-21T00:27:43.535Z,994.1
2017-03-21T00:28:45.382Z,994.2
2017-03-21T00:29:48.270Z,994.2
2017-03-21T00:30:50.113Z,994.3
2017-03-21T00:31:51.958Z,994.4
2017-03-21T00:32:53.808Z,994.4
2017-03-21T00:33:56.352Z,994.4
2017-03-21T00:34:58.209Z,994.4
2017-03-21T00:36:00.216Z,994.4
2017-03-21T00:37:02.055Z,994.3
2017-03-21T00:38:03.897Z,994.4
2017-03-21T00:39:05.763Z,994.4
2017-03-21T00:40:07.964Z,994.4
2017-03-21T00:41:09.804Z,994.5
2017-03-21T00:42:11.653Z,994.5
2017-03-21T00:43:13.495Z,994.5
2017-03-21T00:44:15.693Z,994.4
2017-03-21T00:45:17.883Z,994.4
2017-03-21T00:46:19.731Z,994.4
2017-03-21T00:47:21.562Z,994.4
2017-03-21T00:48:23.475Z,994.4
2017-03-21T00:49:25.683Z,994.4
2017-03-21T00:50:27.888Z,994.4
2017-03-21T00:51:29.729Z,994.4
2017-03-21T00:52:31.585Z,994.4
2017-03-21T00:53:33.770Z,994.5
2017-03-21T00:54:35.967Z,994.5
2017-03-21T00:55:38.139Z,994.4
2017-03-21T00:56:40.192Z,994.4
2017-03-21T00:57:42.948Z,994.4
2017-03-21T00:58:44.811Z,994.5
2017-03-21T00:59:46.654Z,994.5
2017-03-21T01:00:48.634Z,994.5
2017-03-21T01:01:50.482Z,994.5
2017-03-21T01:02:52.334Z,994.6
2017-03-21T01:03:54.564Z,994.6
2017-03-21T01:04:57.116Z,994.6
2017-03-21T01:05:59.998Z,994.6
2017-03-21T01:07:01.837Z,994.6
2017-03-21T01:08:03.684Z,994.7
2017-03-21T01:09:06.203Z,994.8
2017-03-21T01:10:08.062Z,994.8
2017-03-21T01:11:09.930Z,994.7
2017-03-21T01:12:11.923Z,994.8
2017-03-21T01:13:14.102Z,994.7
2017-03-21T01:14:16.964Z,994.8
2017-03-21T01:15:19.434Z,994.8
2017-03-21T01:16:21.280Z,994.8
2017-03-21T01:17:23.115Z,994.8
2017-03-21T01:18:25.464Z,994.8
2017-03-21T01:19:27.652Z,994.7
2017-03-21T01:20:29.860Z,994.9
2017-03-21T01:21:31.703Z,994.9
2017-03-21T01:22:33.547Z,994.8
2017-03-21T01:23:35.655Z,994.9
2017-03-21T01:24:38.509Z,994.9
2017-03-21T01:25:40.696Z,994.9
2017-03-21T01:26:42.732Z,994.9
2017-03-21T01:27:44.921Z,994.8
2017-03-21T01:28:46.772Z,994.8
2017-03-21T01:29:49.237Z,994.8
2017-03-21T01:30:51.080Z,994.9
2017-03-21T01:31:52.944Z,994.8
2017-03-21T01:32:55.274Z,994.9
2017-03-21T01:33:57.802Z,994.9
2017-03-21T01:35:00.205Z,994.9
2017-03-21T01:36:02.057Z,994.9
2017-03-21T01:37:03.895Z,994.9
2017-03-21T01:38:05.957Z,995
2017-03-21T01:39:08.137Z,995
2017-03-21T01:40:09.982Z,995
2017-03-21T01:41:12.182Z,995
2017-03-21T01:42:14.032Z,995
2017-03-21T01:43:15.886Z,995
2017-03-21T01:44:17.866Z,995
2017-03-21T01:45:20.041Z,995.1
2017-03-21T01:46:21.895Z,995.1
2017-03-21T01:47:24.027Z,995.1
2017-03-21T01:48:25.879Z,995.1
2017-03-21T01:49:28.069Z,995.1
2017-03-21T01:50:30.062Z,995.1
2017-03-21T01:51:31.925Z,995.1
2017-03-21T01:52:34.115Z,995.2
2017-03-21T01:53:36.236Z,995.2
2017-03-21T01:54:38.421Z,995.2
2017-03-21T01:55:40.276Z,995.2
2017-03-21T01:56:42.170Z,995.2
2017-03-21T01:57:44.014Z,995.2
2017-03-21T01:58:45.857Z,995.3
2017-03-21T01:59:47.946Z,995.3
2017-03-21T02:00:50.168Z,995.3
2017-03-21T02:01:52.014Z,995.3
2017-03-21T02:02:54.214Z,995.2
2017-03-21T02:03:56.404Z,995.2
2017-03-21T02:04:58.254Z,995.2
2017-03-21T02:06:00.963Z,995.2
2017-03-21T02:07:02.812Z,995.2
2017-03-21T02:08:05.336Z,995.3
2017-03-21T02:09:07.443Z,995.2
2017-03-21T02:10:09.627Z,995.2
2017-03-21T02:11:11.480Z,995.2
2017-03-21T02:12:13.587Z,995.2
2017-03-21T02:13:15.796Z,995.2
2017-03-21T02:14:18.217Z,995.3
2017-03-21T02:15:20.744Z,995.3
2017-03-21T02:16:22.619Z,995.3
2017-03-21T02:17:24.467Z,995.3
2017-03-21T02:18:26.301Z,995.3
2017-03-21T02:19:28.492Z,995.3
2017-03-21T02:20:30.331Z,995.3
2017-03-21T02:21:32.181Z,995.3
2017-03-21T02:22:34.022Z,995.3
2017-03-21T02:23:37.088Z,995.3
2017-03-21T02:24:39.666Z,995.3
2017-03-21T02:25:41.995Z,995.3
2017-03-21T02:26:43.840Z,995.3
2017-03-21T02:27:45.683Z,995.3
2017-03-21T02:28:47.878Z,995.3
2017-03-21T02:29:50.211Z,995.3
2017-03-21T02:30:52.061Z,995.3
2017-03-21T02:31:53.895Z,995.3
2017-03-21T02:32:55.753Z,995.4
2017-03-21T02:33:57.834Z,995.4
2017-03-21T02:35:00.040Z,995.4
2017-03-21T02:36:02.211Z,995.3
2017-03-21T02:37:04.415Z,995.3
2017-03-21T02:38:06.270Z,995.4
2017-03-21T02:39:08.134Z,995.5
2017-03-21T02:40:10.676Z,995.5
2017-03-21T02:41:12.867Z,995.5
2017-03-21T02:42:14.707Z,995.4
2017-03-21T02:43:16.898Z,995.5
2017-03-21T02:44:19.422Z,995.5
2017-03-21T02:45:22.293Z,995.4
2017-03-21T02:46:24.476Z,995.4
2017-03-21T02:47:26.332Z,995.3
2017-03-21T02:48:28.518Z,995.4
2017-03-21T02:49:31.259Z,995.3
2017-03-21T02:50:33.113Z,995.2
2017-03-21T02:51:34.945Z,995.3
2017-03-21T02:52:37.142Z,995.4
2017-03-21T02:53:39.659Z,995.5
2017-03-21T02:54:41.850Z,995.5
2017-03-21T02:55:43.691Z,995.5
2017-03-21T02:56:45.839Z,995.5
2017-03-21T02:57:48.028Z,995.5
2017-03-21T02:58:50.223Z,995.5
2017-03-21T02:59:52.409Z,995.5
2017-03-21T03:00:54.254Z,995.5
2017-03-21T03:01:56.097Z,995.5
2017-03-21T03:02:57.958Z,995.5
2017-03-21T03:03:59.804Z,995.4
2017-03-21T03:05:01.987Z,995.4
2017-03-21T03:06:03.834Z,995.4
2017-03-21T03:07:05.682Z,995.5
2017-03-21T03:08:07.540Z,995.5
2017-03-21T03:09:09.925Z,995.5
2017-03-21T03:10:12.107Z,995.5
2017-03-21T03:11:13.944Z,995.5
2017-03-21T03:12:16.162Z,995.5
2017-03-21T03:13:18.339Z,995.6
2017-03-21T03:14:20.870Z,995.6
2017-03-21T03:15:23.337Z,995.6
2017-03-21T03:16:25.197Z,995.6
2017-03-21T03:17:27.038Z,995.6
2017-03-21T03:18:28.890Z,995.7
2017-03-21T03:19:31.770Z,995.7
2017-03-21T03:20:33.616Z,995.7
2017-03-21T03:21:35.475Z,995.7
2017-03-21T03:22:37.999Z,995.7
2017-03-21T03:23:40.533Z,995.8
2017-03-21T03:24:42.399Z,995.7
2017-03-21T03:25:44.593Z,995.7
2017-03-21T03:26:46.437Z,995.7
2017-03-21T03:27:49.314Z,995.6
2017-03-21T03:28:51.723Z,995.6
2017-03-21T03:29:53.565Z,995.6
2017-03-21T03:30:55.421Z,995.6
2017-03-21T03:31:57.807Z,995.7
2017-03-21T03:32:59.655Z,995.7
2017-03-21T03:34:01.852Z,995.7
2017-03-21T03:35:03.697Z,995.7
2017-03-21T03:36:05.940Z,995.7
2017-03-21T03:37:07.781Z,995.7
2017-03-21T03:38:09.626Z,995.7
2017-03-21T03:39:11.481Z,995.8
2017-03-21T03:40:13.341Z,995.8
2017-03-21T03:41:15.407Z,995.8
2017-03-21T03:42:17.262Z,995.8
2017-03-21T03:43:19.106Z,995.8
2017-03-21T03:44:21.312Z,995.7
2017-03-21T03:45:23.758Z,995.7
2017-03-21T03:46:25.655Z,995.7
2017-03-21T03:47:27.496Z,995.7
2017-03-21T03:48:29.347Z,995.7
2017-03-21T03:49:31.891Z,995.7
2017-03-21T03:50:33.740Z,995.7
2017-03-21T03:51:35.585Z,995.8
2017-03-21T03:52:37.980Z,995.8
2017-03-21T03:53:40.507Z,995.8
2017-03-21T03:54:42.359Z,995.8
2017-03-21T03:55:44.877Z,995.8
2017-03-21T03:56:47.057Z,995.8
2017-03-21T03:57:48.908Z,995.8
2017-03-21T03:58:51.293Z,995.9
2017-03-21T03:59:53.497Z,995.9
2017-03-21T04:00:56.036Z,995.9
2017-03-21T04:01:58.035Z,995.9
2017-03-21T04:02:59.883Z,995.9
2017-03-21T04:04:01.750Z,995.9
2017-03-21T04:05:03.604Z,995.9
2017-03-21T04:06:05.458Z,995.9
2017-03-21T04:07:07.295Z,995.9
2017-03-21T04:08:09.139Z,995.9
2017-03-21T04:09:11.332Z,995.9
2017-03-21T04:10:13.187Z,996
2017-03-21T04:11:15.032Z,996
2017-03-21T04:12:16.879Z,996
2017-03-21T04:13:18.731Z,996
2017-03-21T04:14:20.931Z,996
2017-03-21T04:15:23.507Z,996
2017-03-21T04:16:25.348Z,996.1
2017-03-21T04:17:27.527Z,996.1
2017-03-21T04:18:29.381Z,996.1
2017-03-21T04:19:31.576Z,996.1
2017-03-21T04:20:33.773Z,996.1
2017-03-21T04:21:35.802Z,996.1
2017-03-21T04:22:37.975Z,996.1
2017-03-21T04:23:39.832Z,996.2
2017-03-21T04:24:42.020Z,996.1
2017-03-21T04:25:43.874Z,996.1
2017-03-21T04:26:45.717Z,996.2
2017-03-21T04:27:48.025Z,996.2
2017-03-21T04:28:50.217Z,996.2
2017-03-21T04:29:52.070Z,996.2
2017-03-21T04:30:54.246Z,996.2
2017-03-21T04:31:56.089Z,996.2
2017-03-21T04:32:58.498Z,996.2
2017-03-21T04:34:00.688Z,996.2
2017-03-21T04:35:02.890Z,996.3
2017-03-21T04:36:05.064Z,996.3
2017-03-21T04:37:06.907Z,996.3
2017-03-21T04:38:09.273Z,996.3
2017-03-21T04:39:11.127Z,996.3
2017-03-21T04:40:13.314Z,996.3
2017-03-21T04:41:15.157Z,996.3
2017-03-21T04:42:17.498Z,996.3
2017-03-21T04:43:20.365Z,996.3
2017-03-21T04:44:22.908Z,996.3
2017-03-21T04:45:24.789Z,996.3
2017-03-21T04:46:26.634Z,996.3
2017-03-21T04:47:28.479Z,996.3
2017-03-21T04:48:30.329Z,996.4
2017-03-21T04:49:32.517Z,996.4
2017-03-21T04:50:34.702Z,996.4
2017-03-21T04:51:36.549Z,996.4
2017-03-21T04:52:38.727Z,996.3
2017-03-21T04:53:40.581Z,996.3
2017-03-21T04:54:42.771Z,996.3
2017-03-21T04:55:44.953Z,996.3
2017-03-21T04:56:46.801Z,996.3
2017-03-21T04:57:48.637Z,996.4
2017-03-21T04:58:50.828Z,996.3
2017-03-21T04:59:54.045Z,996.3
2017-03-21T05:00:56.439Z,996.3
2017-03-21T05:01:58.275Z,996.3
2017-03-21T05:03:00.472Z,996.3
2017-03-21T05:04:02.315Z,996.4
2017-03-21T05:05:05.319Z,996.4
2017-03-21T05:06:07.167Z,996.4
2017-03-21T05:07:09.021Z,996.4
2017-03-21T05:08:10.878Z,996.4
2017-03-21T05:09:13.070Z,996.3
2017-03-21T05:10:15.268Z,996.3
2017-03-21T05:11:17.441Z,996.4
2017-03-21T05:12:19.296Z,996.4
2017-03-21T05:13:21.140Z,996.4
2017-03-21T05:14:23.336Z,996.4
2017-03-21T05:15:25.535Z,996.4
2017-03-21T05:16:27.381Z,996.4
2017-03-21T05:17:29.790Z,996.4
2017-03-21T05:18:31.647Z,996.5
2017-03-21T05:19:33.839Z,996.4
2017-03-21T05:20:35.680Z,996.5
2017-03-21T05:21:37.919Z,996.5
2017-03-21T05:22:39.766Z,996.5
2017-03-21T05:23:41.963Z,996.5
2017-03-21T05:24:44.158Z,996.5
2017-03-21T05:25:46.336Z,996.5
2017-03-21T05:26:48.529Z,996.5
2017-03-21T05:27:50.374Z,996.6
2017-03-21T05:28:52.585Z,996.6
2017-03-21T05:29:55.486Z,996.5
2017-03-21T05:30:57.340Z,996.6
2017-03-21T05:31:59.181Z,996.6
2017-03-21T05:33:01.031Z,996.6
2017-03-21T05:34:03.378Z,996.6
2017-03-21T05:35:05.220Z,996.6
2017-03-21T05:36:07.058Z,996.6
2017-03-21T05:37:08.907Z,996.7
2017-03-21T05:38:11.541Z,996.7
2017-03-21T05:39:13.378Z,996.7
2017-03-21T05:40:15.905Z,996.7
2017-03-21T05:41:18.114Z,996.8
2017-03-21T05:42:19.963Z,996.8
2017-03-21T05:43:21.813Z,996.8
2017-03-21T05:44:25.024Z,996.9
2017-03-21T05:45:27.260Z,996.8
2017-03-21T05:46:29.112Z,996.9
2017-03-21T05:47:30.956Z,996.9
2017-03-21T05:48:32.811Z,996.9
2017-03-21T05:49:34.653Z,996.9
2017-03-21T05:50:36.500Z,996.9
2017-03-21T05:51:38.341Z,996.9
2017-03-21T05:52:40.182Z,996.8
2017-03-21T05:53:42.383Z,996.8
2017-03-21T05:54:44.227Z,996.9
2017-03-21T05:55:46.072Z,996.9
2017-03-21T05:56:47.919Z,996.9
2017-03-21T05:57:49.764Z,997
2017-03-21T05:58:51.612Z,997
2017-03-21T05:59:54.137Z,997
2017-03-21T06:00:56.684Z,997
2017-03-21T06:01:58.533Z,997
2017-03-21T06:03:00.381Z,997
2017-03-21T06:04:02.566Z,997
2017-03-21T06:05:04.753Z,997
2017-03-21T06:06:06.600Z,996.9
2017-03-21T06:07:08.455Z,996.9
2017-03-21T06:08:10.635Z,997
2017-03-21T06:09:12.829Z,997
2017-03-21T06:10:15.822Z,997
2017-03-21T06:11:17.665Z,997
2017-03-21T06:12:19.503Z,997
2017-03-21T06:13:21.338Z,997
2017-03-21T06:14:23.825Z,997
2017-03-21T06:15:25.698Z,997
2017-03-21T06:16:27.553Z,997
2017-03-21T06:17:29.392Z,997
2017-03-21T06:18:31.742Z,997
2017-03-21T06:19:33.597Z,997
2017-03-21T06:20:35.788Z,997
2017-03-21T06:21:37.631Z,997.1
2017-03-21T06:22:39.884Z,997.1
2017-03-21T06:23:41.747Z,997
2017-03-21T06:24:43.586Z,997
2017-03-21T06:25:45.435Z,997.1
2017-03-21T06:26:47.336Z,997.1
2017-03-21T06:27:49.182Z,997.1
2017-03-21T06:28:51.703Z,997.1
2017-03-21T06:29:53.886Z,997.1
2017-03-21T06:30:55.770Z,997.1
2017-03-21T06:31:58.297Z,997.1
2017-03-21T06:33:00.148Z,997.2
2017-03-21T06:34:01.995Z,997.3
2017-03-21T06:35:03.846Z,997.3
2017-03-21T06:36:05.683Z,997.3
2017-03-21T06:37:07.528Z,997.3
2017-03-21T06:38:09.707Z,997.3
2017-03-21T06:39:11.887Z,997.3
2017-03-21T06:40:13.744Z,997.3
2017-03-21T06:41:15.582Z,997.3
2017-03-21T06:42:17.424Z,997.4
2017-03-21T06:43:19.314Z,997.4
2017-03-21T06:44:21.157Z,997.4
2017-03-21T06:45:23.343Z,997.4
2017-03-21T06:46:25.177Z,997.4
2017-03-21T06:47:27.018Z,997.5
2017-03-21T06:48:29.199Z,997.5
2017-03-21T06:49:32.084Z,997.5
2017-03-21T06:50:33.938Z,997.5
2017-03-21T06:51:36.388Z,997.5
2017-03-21T06:52:38.231Z,997.5
2017-03-21T06:53:40.415Z,997.5
2017-03-21T06:54:42.296Z,997.5
2017-03-21T06:55:44.583Z,997.5
2017-03-21T06:56:46.433Z,997.5
2017-03-21T06:57:48.621Z,997.5
2017-03-21T06:58:50.476Z,997.5
2017-03-21T06:59:53.255Z,997.5
2017-03-21T07:00:55.444Z,997.5
2017-03-21T07:01:57.298Z,997.5
2017-03-21T07:02:59.540Z,997.5
2017-03-21T07:04:01.390Z,997.5
2017-03-21T07:05:03.573Z,997.4
2017-03-21T07:06:05.420Z,997.4
2017-03-21T07:07:07.427Z,997.4
2017-03-21T07:08:09.272Z,997.5
2017-03-21T07:09:11.457Z,997.5
2017-03-21T07:10:13.313Z,997.5
2017-03-21T07:11:15.222Z,997.5
2017-03-21T07:12:17.073Z,997.5
2017-03-21T07:13:18.916Z,997.6
2017-03-21T07:14:21.107Z,997.6
2017-03-21T07:15:23.025Z,997.6
2017-03-21T07:16:24.881Z,997.6
2017-03-21T07:17:26.720Z,997.7
2017-03-21T07:18:28.570Z,997.6
2017-03-21T07:19:30.831Z,997.6
2017-03-21T07:20:32.676Z,997.6
2017-03-21T07:21:34.527Z,997.6
2017-03-21T07:22:36.707Z,997.7
2017-03-21T07:23:38.724Z,997.7
2017-03-21T07:24:40.904Z,997.7
2017-03-21T07:25:43.091Z,997.6
2017-03-21T07:26:44.943Z,997.6
2017-03-21T07:27:46.781Z,997.7
2017-03-21T07:28:48.654Z,997.6
2017-03-21T07:29:50.503Z,997.7
2017-03-21T07:30:52.349Z,997.7
2017-03-21T07:31:54.541Z,997.7
2017-03-21T07:32:56.373Z,997.8
2017-03-21T07:33:58.573Z,997.8
2017-03-21T07:35:00.763Z,997.8
2017-03-21T07:36:02.614Z,997.8
2017-03-21T07:37:04.791Z,997.8
2017-03-21T07:38:07.326Z,997.8
2017-03-21T07:39:09.503Z,997.8
2017-03-21T07:40:11.346Z,997.8
2017-03-21T07:41:13.865Z,997.8
2017-03-21T07:42:15.716Z,997.8
2017-03-21T07:43:17.571Z,997.8
2017-03-21T07:44:19.416Z,997.8
2017-03-21T07:45:21.326Z,997.8
2017-03-21T07:46:23.162Z,997.8
2017-03-21T07:47:25.020Z,997.8
2017-03-21T07:48:26.870Z,997.8
2017-03-21T07:49:28.720Z,997.8
2017-03-21T07:50:31.264Z,997.8
2017-03-21T07:51:33.106Z,997.8
2017-03-21T07:52:34.959Z,997.9
2017-03-21T07:53:37.159Z,997.8
2017-03-21T07:54:39.337Z,997.8
2017-03-21T07:55:41.190Z,997.8
2017-03-21T07:56:43.040Z,997.8
2017-03-21T07:57:44.892Z,997.7
2017-03-21T07:58:46.744Z,997.7
2017-03-21T07:59:48.601Z,997.7
2017-03-21T08:00:50.445Z,997.7
2017-03-21T08:01:52.289Z,997.7
2017-03-21T08:02:54.140Z,997.7
2017-03-21T08:03:56.006Z,997.7
2017-03-21T08:04:57.857Z,997.7
2017-03-21T08:06:00.180Z,997.7
2017-03-21T08:07:02.185Z,997.6
2017-03-21T08:08:04.060Z,997.7
2017-03-21T08:09:06.271Z,997.6
2017-03-21T08:10:08.473Z,997.6
2017-03-21T08:11:10.359Z,997.6
2017-03-21T08:12:12.208Z,997.7
2017-03-21T08:13:14.080Z,997.7
2017-03-21T08:14:15.926Z,997.7
2017-03-21T08:15:18.139Z,997.7
2017-03-21T08:16:20.363Z,997.7
2017-03-21T08:17:22.311Z,997.7
2017-03-21T08:18:24.187Z,997.7
2017-03-21T08:19:26.062Z,997.8
2017-03-21T08:20:28.597Z,997.8
2017-03-21T08:21:31.308Z,997.7
2017-03-21T08:22:33.264Z,997.7
2017-03-21T08:23:35.143Z,997.7
2017-03-21T08:24:37.018Z,997.8
2017-03-21T08:25:39.491Z,997.7
2017-03-21T08:26:41.385Z,997.8
2017-03-21T08:27:43.249Z,997.9
2017-03-21T08:28:45.145Z,997.8
2017-03-21T08:29:47.411Z,997.8
2017-03-21T08:30:49.273Z,997.8
2017-03-21T08:31:51.133Z,997.8
2017-03-21T08:32:53.540Z,997.8
2017-03-21T08:33:55.439Z,997.7
2017-03-21T08:34:57.340Z,997.8
2017-03-21T08:35:59.200Z,997.8
2017-03-21T08:37:01.073Z,997.8
2017-03-21T08:38:03.681Z,997.8
2017-03-21T08:39:06.226Z,997.7
2017-03-21T08:40:08.107Z,997.8
2017-03-21T08:41:10.542Z,997.8
2017-03-21T08:42:12.420Z,997.8
2017-03-21T08:43:14.640Z,997.8
2017-03-21T08:44:16.498Z,997.8
2017-03-21T08:45:18.352Z,997.8
2017-03-21T08:46:20.219Z,997.7
2017-03-21T08:47:22.065Z,997.7
2017-03-21T08:48:23.951Z,997.8
2017-03-21T08:49:26.546Z,997.7
2017-03-21T08:50:29.111Z,997.8
2017-03-21T08:51:31.026Z,997.8
2017-03-21T08:52:32.882Z,997.7
2017-03-21T08:53:34.731Z,997.8
2017-03-21T08:54:36.631Z,997.8
2017-03-21T08:55:39.137Z,997.8
2017-03-21T08:56:41.015Z,997.8
2017-03-21T08:57:42.891Z,997.8
2017-03-21T08:58:44.762Z,997.8
2017-03-21T08:59:46.994Z,998
2017-03-21T09:00:48.845Z,997.8
2017-03-21T09:01:50.701Z,997.8
2017-03-21T09:02:52.577Z,997.8
2017-03-21T09:03:54.476Z,997.8
2017-03-21T09:04:56.420Z,997.7
2017-03-21T09:05:58.280Z,997.7
2017-03-21T09:07:00.134Z,997.7
2017-03-21T09:08:02.003Z,997.8
2017-03-21T09:09:03.890Z,997.8
2017-03-21T09:10:06.097Z,997.7
2017-03-21T09:11:07.969Z,997.8
2017-03-21T09:12:09.831Z,997.8
2017-03-21T09:13:11.696Z,997.7
2017-03-21T09:14:13.769Z,997.8
2017-03-21T09:15:15.969Z,997.8
2017-03-21T09:16:17.822Z,997.8
2017-03-21T09:17:20.007Z,997.9
2017-03-21T09:18:21.885Z,997.8
2017-03-21T09:19:23.754Z,998
2017-03-21T09:20:26.210Z,997.8
2017-03-21T09:21:28.102Z,997.8
2017-03-21T09:22:29.958Z,997.8
2017-03-21T09:23:32.435Z,997.8
2017-03-21T09:24:34.303Z,997.8
2017-03-21T09:25:36.242Z,997.8
2017-03-21T09:26:38.599Z,997.8
2017-03-21T09:27:40.442Z,997.8
2017-03-21T09:28:42.302Z,997.8
2017-03-21T09:29:44.783Z,997.8
2017-03-21T09:30:46.973Z,997.8
2017-03-21T09:31:48.824Z,997.8
2017-03-21T09:32:51.122Z,997.8
2017-03-21T09:33:53.357Z,997.8
2017-03-21T09:34:55.587Z,997.8
2017-03-21T09:35:57.530Z,997.8
2017-03-21T09:36:59.400Z,997.8
2017-03-21T09:38:01.314Z,997.8
2017-03-21T09:39:03.627Z,997.8
2017-03-21T09:40:05.481Z,997.8
2017-03-21T09:41:07.363Z,997.7
2017-03-21T09:42:09.831Z,997.9
2017-03-21T09:43:11.685Z,997.9
2017-03-21T09:44:13.544Z,997.9
2017-03-21T09:45:15.415Z,997.8
2017-03-21T09:46:17.845Z,997.9
2017-03-21T09:47:19.705Z,997.8
2017-03-21T09:48:21.569Z,997.7
2017-03-21T09:49:24.059Z,997.8
2017-03-21T09:50:25.939Z,997.8
2017-03-21T09:51:27.795Z,997.8
2017-03-21T09:52:30.232Z,997.8
2017-03-21T09:53:32.132Z,997.8
2017-03-21T09:54:33.992Z,997.9
2017-03-21T09:55:36.383Z,997.9
2017-03-21T09:56:38.297Z,997.9
2017-03-21T09:57:41.065Z,997.8
2017-03-21T09:58:43.231Z,997.8
2017-03-21T09:59:45.161Z,997.8
2017-03-21T10:00:47.842Z,997.8
2017-03-21T10:01:49.693Z,997.8
2017-03-21T10:02:51.608Z,997.8
2017-03-21T10:03:53.826Z,997.9
2017-03-21T10:04:55.687Z,997.9
2017-03-21T10:05:57.550Z,997.8
2017-03-21T10:06:59.994Z,997.9
2017-03-21T10:08:02.192Z,997.8
2017-03-21T10:09:04.048Z,997.8
2017-03-21T10:10:06.411Z,997.8
2017-03-21T10:11:08.267Z,997.8
2017-03-21T10:12:10.118Z,997.9
2017-03-21T10:13:11.973Z,997.8
2017-03-21T10:14:13.872Z,997.9
2017-03-21T10:15:15.748Z,997.9
2017-03-21T10:16:17.608Z,997.9
2017-03-21T10:17:19.462Z,997.9
2017-03-21T10:18:21.313Z,997.9
2017-03-21T10:19:23.214Z,997.9
2017-03-21T10:20:25.110Z,997.9
2017-03-21T10:21:27.032Z,997.9
2017-03-21T10:22:29.227Z,997.9
2017-03-21T10:23:31.153Z,998
2017-03-21T10:24:33.060Z,998
2017-03-21T10:25:35.268Z,998
2017-03-21T10:26:37.119Z,997.9
2017-03-21T10:27:39.309Z,998
2017-03-21T10:28:41.195Z,997.9
2017-03-21T10:29:43.063Z,998.1
2017-03-21T10:30:45.023Z,997.9
2017-03-21T10:31:47.218Z,997.9
2017-03-21T10:32:49.133Z,998
2017-03-21T10:33:51.349Z,998
2017-03-21T10:34:53.206Z,998
2017-03-21T10:35:55.055Z,998.1
2017-03-21T10:36:57.137Z,998.1
2017-03-21T10:37:59.004Z,997.9
2017-03-21T10:39:01.377Z,998
2017-03-21T10:40:03.569Z,997.9
2017-03-21T10:41:05.482Z,998
2017-03-21T10:42:07.352Z,998.1
2017-03-21T10:43:09.228Z,998
2017-03-21T10:44:11.080Z,997.9
2017-03-21T10:45:12.973Z,997.9
2017-03-21T10:46:14.861Z,998
2017-03-21T10:47:16.990Z,997.8
2017-03-21T10:48:18.842Z,997.9
2017-03-21T10:49:20.739Z,998
2017-03-21T10:50:22.822Z,998
2017-03-21T10:51:24.739Z,998
2017-03-21T10:52:26.946Z,997.9
2017-03-21T10:53:28.935Z,998
2017-03-21T10:54:30.829Z,998
2017-03-21T10:55:32.677Z,998
2017-03-21T10:56:34.694Z,998
2017-03-21T10:57:36.544Z,998
2017-03-21T10:58:38.468Z,998
2017-03-21T10:59:40.311Z,997.9
2017-03-21T11:00:42.177Z,998
2017-03-21T11:01:44.026Z,998
2017-03-21T11:02:45.906Z,998
2017-03-21T11:03:47.793Z,998.1
2017-03-21T11:04:49.656Z,998
2017-03-21T11:05:51.620Z,997.9
2017-03-21T11:06:53.489Z,998
2017-03-21T11:07:55.350Z,998
2017-03-21T11:08:57.233Z,998
2017-03-21T11:09:59.304Z,998
2017-03-21T11:11:01.167Z,998
2017-03-21T11:12:03.036Z,998
2017-03-21T11:13:05.406Z,998
2017-03-21T11:14:07.278Z,998
2017-03-21T11:15:09.130Z,998
2017-03-21T11:16:11.097Z,998
2017-03-21T11:17:12.966Z,998
2017-03-21T11:18:14.849Z,998.1
2017-03-21T11:19:16.913Z,998
2017-03-21T11:20:18.774Z,998
2017-03-21T11:21:20.619Z,997.9
2017-03-21T11:22:22.590Z,997.9
2017-03-21T11:23:24.454Z,997.9
2017-03-21T11:24:26.311Z,997.9
2017-03-21T11:25:28.375Z,998
2017-03-21T11:26:30.272Z,998
2017-03-21T11:27:32.137Z,997.9
2017-03-21T11:28:34.028Z,998
2017-03-21T11:29:36.000Z,998
2017-03-21T11:30:37.856Z,997.9
2017-03-21T11:31:39.780Z,997.9
2017-03-21T11:32:41.640Z,998
2017-03-21T11:33:43.497Z,998
2017-03-21T11:34:45.344Z,997.9
2017-03-21T11:35:47.205Z,998
2017-03-21T11:36:49.085Z,998.1
2017-03-21T11:37:50.946Z,998
2017-03-21T11:38:52.799Z,997.9
2017-03-21T11:39:54.737Z,997.9
2017-03-21T11:40:56.579Z,997.9
2017-03-21T11:41:59.120Z,997.9
2017-03-21T11:43:00.978Z,998
2017-03-21T11:44:03.180Z,997.9
2017-03-21T11:45:05.105Z,997.9
2017-03-21T11:46:06.966Z,997.9
2017-03-21T11:47:08.827Z,998
2017-03-21T11:48:10.891Z,998
2017-03-21T11:49:12.762Z,998
2017-03-21T11:50:14.665Z,998
2017-03-21T11:51:16.863Z,998
2017-03-21T11:52:18.730Z,998
2017-03-21T11:53:20.884Z,998
2017-03-21T11:54:23.150Z,998.1
2017-03-21T11:55:25.006Z,998
2017-03-21T11:56:26.872Z,997.9
2017-03-21T11:57:29.125Z,998.1
2017-03-21T11:58:31.000Z,998.2
2017-03-21T11:59:33.496Z,998.1
2017-03-21T12:00:35.729Z,998.1
2017-03-21T12:01:37.593Z,998.1
2017-03-21T12:02:39.744Z,998.1
2017-03-21T12:03:41.607Z,998.2
2017-03-21T12:04:43.482Z,998.1
2017-03-21T12:05:45.369Z,998.1
2017-03-21T12:06:47.217Z,998.2
2017-03-21T12:07:49.068Z,998.1
2017-03-21T12:08:51.269Z,998.1
2017-03-21T12:09:53.173Z,998.2
2017-03-21T12:10:55.393Z,998.2
2017-03-21T12:11:57.243Z,998.2
2017-03-21T12:12:59.099Z,998.1
2017-03-21T12:14:01.728Z,998.1
2017-03-21T12:15:03.579Z,998.1
2017-03-21T12:16:05.432Z,998.1
2017-03-21T12:17:07.292Z,998.1
2017-03-21T12:18:09.180Z,998
2017-03-21T12:19:11.367Z,998
2017-03-21T12:20:13.223Z,998
2017-03-21T12:21:15.086Z,997.9
2017-03-21T12:22:17.282Z,998
2017-03-21T12:23:19.152Z,998.1
2017-03-21T12:24:21.006Z,998
2017-03-21T12:25:22.858Z,998.1
2017-03-21T12:26:24.720Z,997.9
2017-03-21T12:27:26.755Z,998
2017-03-21T12:28:29.049Z,998.2
2017-03-21T12:29:30.952Z,997.9
2017-03-21T12:30:33.161Z,997.9
2017-03-21T12:31:35.010Z,997.9
2017-03-21T12:32:36.860Z,997.9
2017-03-21T12:33:39.068Z,997.8
2017-03-21T12:34:40.973Z,997.9
2017-03-21T12:35:42.843Z,997.9
2017-03-21T12:36:44.698Z,997.8
2017-03-21T12:37:46.554Z,997.9
2017-03-21T12:38:48.439Z,998
2017-03-21T12:39:50.745Z,997.9
2017-03-21T12:40:52.587Z,997.9
2017-03-21T12:41:54.450Z,997.9
2017-03-21T12:42:56.999Z,997.9
2017-03-21T12:43:59.114Z,998
2017-03-21T12:45:01.355Z,997.8
2017-03-21T12:46:03.333Z,998
2017-03-21T12:47:05.317Z,997.8
2017-03-21T12:48:07.185Z,997.9
2017-03-21T12:49:09.138Z,998
2017-03-21T12:50:11.011Z,997.8
2017-03-21T12:51:12.905Z,998
2017-03-21T12:52:14.835Z,997.9
2017-03-21T12:53:17.050Z,998.2
2017-03-21T12:54:19.239Z,998.1
2017-03-21T12:55:21.120Z,998.2
2017-03-21T12:56:22.979Z,998.1
2017-03-21T12:57:24.827Z,998.1
2017-03-21T12:58:26.689Z,998.2
2017-03-21T12:59:28.550Z,998.1
2017-03-21T13:00:30.718Z,998.1
2017-03-21T13:01:32.575Z,998.1
2017-03-21T13:02:34.430Z,998.1
2017-03-21T13:03:36.283Z,998.1
2017-03-21T13:04:38.173Z,998
2017-03-21T13:05:40.420Z,998
2017-03-21T13:06:42.602Z,998
2017-03-21T13:07:44.469Z,998
2017-03-21T13:08:46.393Z,998.1
2017-03-21T13:09:48.248Z,998
2017-03-21T13:10:50.100Z,998
2017-03-21T13:11:51.965Z,998.1
2017-03-21T13:12:53.835Z,998
2017-03-21T13:13:55.748Z,998.2
2017-03-21T13:14:57.767Z,998.1
2017-03-21T13:15:59.621Z,998.1
2017-03-21T13:17:01.479Z,997.9
2017-03-21T13:18:03.696Z,998.1
2017-03-21T13:19:05.572Z,998.2
2017-03-21T13:20:07.435Z,998.1
2017-03-21T13:21:09.291Z,998.2
2017-03-21T13:22:11.503Z,998.2
2017-03-21T13:23:13.351Z,998.2
2017-03-21T13:24:15.206Z,998.2
2017-03-21T13:25:17.065Z,998.1
2017-03-21T13:26:18.935Z,998.1